createdAt,value
2023-01-26T04:50:11.847Z,575.08
2023-01-26T04:52:38.618Z,569.97
2023-01-26T04:55:05.550Z,569.88
2023-01-26T04:57:32.120Z,572.17
2023-01-26T04:59:58.712Z,574.57
2023-01-26T05:02:25.342Z,576.60
2023-01-26T05:04:51.955Z,579.30
2023-01-26T05:07:18.588Z,578.83
2023-01-26T05:09:45.161Z,574.15
2023-01-26T05:12:30.645Z,571.45
2023-01-26T05:14:57.267Z,565.33
2023-01-26T05:17:23.943Z,562.28
2023-01-26T05:19:50.610Z,563.47
2023-01-26T05:22:17.214Z,565.60
2023-01-26T05:24:43.797Z,565.53
2023-01-26T05:27:22.461Z,566.08
2023-01-26T05:29:50.499Z,565.57
2023-01-26T05:32:17.496Z,567.83
2023-01-26T05:34:44.219Z,573.60
2023-01-26T05:37:12.554Z,567.63
2023-01-26T05:39:40.275Z,572.88
2023-01-26T05:42:07.061Z,567.78
2023-01-26T05:44:33.698Z,571.25
2023-01-26T05:47:00.337Z,572.92
2023-01-26T05:49:26.968Z,564.78
2023-01-26T05:51:53.608Z,567.85
2023-01-26T05:54:20.182Z,564.05
2023-01-26T05:56:46.792Z,573.20
2023-01-26T05:59:13.824Z,569.17
2023-01-26T06:01:40.611Z,563.08
2023-01-26T06:04:07.815Z,574.95
2023-01-26T06:06:34.410Z,561.45
2023-01-26T06:09:01.086Z,564.53
2023-01-26T06:11:27.680Z,562.75
2023-01-26T06:13:54.311Z,560.70
2023-01-26T06:16:20.893Z,557.13
2023-01-26T06:18:50.658Z,559.23
2023-01-26T06:21:17.309Z,559.38
2023-01-26T06:23:44.451Z,563.95
2023-01-26T06:26:11.098Z,559.88
2023-01-26T06:28:38.112Z,571.58
2023-01-26T06:31:07.075Z,570.15
2023-01-26T06:33:35.624Z,561.90
2023-01-26T06:36:03.513Z,561.70
2023-01-26T06:38:30.327Z,564.17
2023-01-26T06:41:05.028Z,558.17
2023-01-26T06:43:33.784Z,557.33
2023-01-26T06:46:01.376Z,560.45
2023-01-26T06:48:30.760Z,558.10
2023-01-26T06:51:03.715Z,563.23
2023-01-26T06:53:35.018Z,559.67
2023-01-26T06:56:02.145Z,556.42
2023-01-26T06:58:28.762Z,556.35
2023-01-26T07:00:56.578Z,557.33
2023-01-26T07:03:23.677Z,558.03
2023-01-26T07:05:50.315Z,549.10
2023-01-26T07:08:17.037Z,557.95
2023-01-26T07:10:43.736Z,562.53
2023-01-26T07:13:10.449Z,560.45
2023-01-26T07:15:37.117Z,561.17
2023-01-26T07:18:03.889Z,562.13
2023-01-26T07:20:30.566Z,556.10
2023-01-26T07:23:00.607Z,558.83
2023-01-26T07:25:27.382Z,562.55
2023-01-26T07:27:58.497Z,559.92
2023-01-26T07:30:25.858Z,560.20
2023-01-26T07:32:52.457Z,567.85
2023-01-26T07:35:19.145Z,552.33
2023-01-26T07:37:45.802Z,565.63
2023-01-26T07:40:13.166Z,556.45
2023-01-26T07:42:40.178Z,564.92
2023-01-26T07:45:07.533Z,563.92
2023-01-26T07:47:35.897Z,561.30
2023-01-26T07:50:02.699Z,558.40
2023-01-26T07:52:29.444Z,555.60
2023-01-26T07:54:56.132Z,560.22
2023-01-26T07:57:22.777Z,560.28
2023-01-26T07:59:49.431Z,560.30
2023-01-26T08:02:16.027Z,558.35
2023-01-26T08:04:42.685Z,553.15
2023-01-26T08:07:09.278Z,559.58
2023-01-26T08:09:36.098Z,563.00
2023-01-26T08:12:02.804Z,563.63
2023-01-26T08:14:38.360Z,566.33
2023-01-26T08:17:12.707Z,563.65
2023-01-26T08:19:39.336Z,565.35
2023-01-26T08:22:05.933Z,558.67
2023-01-26T08:24:32.506Z,561.45
2023-01-26T08:26:59.147Z,564.72
2023-01-26T08:29:25.739Z,557.45
2023-01-26T08:31:53.512Z,553.75
2023-01-26T08:34:22.371Z,557.00
2023-01-26T08:36:49.383Z,565.17
2023-01-26T08:39:16.076Z,558.90
2023-01-26T08:41:42.712Z,565.40
2023-01-26T08:44:10.666Z,560.15
2023-01-26T08:46:37.438Z,560.95
2023-01-26T08:49:04.101Z,558.10
2023-01-26T08:51:30.819Z,555.90
2023-01-26T08:53:57.558Z,562.60
2023-01-26T08:56:24.385Z,565.60
2023-01-26T08:58:51.015Z,560.47
2023-01-26T09:01:18.111Z,562.20
2023-01-26T09:03:45.027Z,565.73
2023-01-26T09:06:13.546Z,566.03
2023-01-26T09:08:40.467Z,573.53
2023-01-26T09:11:07.856Z,569.55
2023-01-26T09:13:34.554Z,570.72
2023-01-26T09:16:04.744Z,580.25
2023-01-26T09:18:31.397Z,578.45
2023-01-26T09:21:06.286Z,576.25
2023-01-26T09:23:33.896Z,578.63
2023-01-26T09:26:00.605Z,570.83
2023-01-26T09:28:27.588Z,575.53
2023-01-26T09:30:54.444Z,571.97
2023-01-26T09:33:22.767Z,577.40
2023-01-26T09:35:50.068Z,570.95
2023-01-26T09:38:17.045Z,572.42
2023-01-26T09:40:50.943Z,586.58
2023-01-26T09:43:36.422Z,580.13
2023-01-26T09:46:06.062Z,585.22
2023-01-26T09:49:17.014Z,587.05
2023-01-26T09:51:51.810Z,590.47
2023-01-26T09:54:37.075Z,594.53
2023-01-26T09:57:18.960Z,587.65
2023-01-26T09:59:58.392Z,578.67
2023-01-26T10:02:38.007Z,613.25
2023-01-26T10:05:25.282Z,607.25
2023-01-26T10:07:51.919Z,605.78
2023-01-26T10:10:34.745Z,611.72
2023-01-26T10:13:02.726Z,610.75
2023-01-26T10:15:33.498Z,609.00
2023-01-26T10:18:06.286Z,608.13
2023-01-26T10:20:58.535Z,604.72
2023-01-26T10:23:33.570Z,614.17
2023-01-26T10:26:15.443Z,610.00
2023-01-26T10:28:43.960Z,612.17
2023-01-26T10:31:22.809Z,592.47
2023-01-26T10:34:35.955Z,587.53
2023-01-26T10:37:20.675Z,615.20
2023-01-26T10:40:01.518Z,596.40
2023-01-26T10:42:30.705Z,605.25
2023-01-26T10:45:00.315Z,609.15
2023-01-26T10:47:27.460Z,598.38
2023-01-26T10:50:13.994Z,614.65
2023-01-26T10:52:57.786Z,607.47
2023-01-26T10:55:25.162Z,609.28
2023-01-26T10:57:52.356Z,613.83
2023-01-26T11:00:19.949Z,589.67
2023-01-26T11:02:52.275Z,586.40
2023-01-26T11:05:21.907Z,589.60
2023-01-26T11:08:00.310Z,615.17
2023-01-26T11:10:37.806Z,618.38
2023-01-26T11:13:23.116Z,603.08
2023-01-26T11:16:00.788Z,616.15
2023-01-26T11:18:51.847Z,614.58
2023-01-26T11:21:24.551Z,611.00
2023-01-26T11:24:14.052Z,585.95
2023-01-26T11:27:17.172Z,586.85
2023-01-26T11:30:04.235Z,584.67
2023-01-26T11:32:40.358Z,588.97
2023-01-26T11:35:22.506Z,584.47
2023-01-26T11:38:16.919Z,585.97
2023-01-26T11:41:02.307Z,581.47
2023-01-26T11:43:47.147Z,584.53
2023-01-26T11:46:39.028Z,584.28
2023-01-26T11:49:43.884Z,583.38
2023-01-26T11:52:45.440Z,602.70
2023-01-26T11:55:36.863Z,601.80
2023-01-26T11:58:12.415Z,597.50
2023-01-26T12:00:44.075Z,597.28
2023-01-26T12:03:29.268Z,573.83
2023-01-26T12:06:00.432Z,570.17
2023-01-26T12:08:38.616Z,571.42
2023-01-26T12:11:23.346Z,562.70
2023-01-26T12:14:00.436Z,576.85
2023-01-26T12:16:43.827Z,566.03
2023-01-26T12:19:20.869Z,571.20
2023-01-26T12:21:49.989Z,555.05
2023-01-26T12:25:00.924Z,559.40
2023-01-26T12:27:36.480Z,549.60
2023-01-26T12:30:28.366Z,550.42
2023-01-26T12:32:55.135Z,546.78
2023-01-26T12:35:54.569Z,551.17
2023-01-26T12:38:30.056Z,548.22
2023-01-26T12:41:21.875Z,552.58
2023-01-26T12:44:03.251Z,552.47
2023-01-26T12:46:35.183Z,555.63
2023-01-26T12:49:10.691Z,545.88
2023-01-26T12:51:50.513Z,548.23
2023-01-26T12:54:45.190Z,555.90
2023-01-26T12:57:20.239Z,541.57
2023-01-26T12:59:49.181Z,548.80
2023-01-26T13:02:16.045Z,546.53
2023-01-26T13:04:46.140Z,536.93
2023-01-26T13:07:31.734Z,540.63
2023-01-26T13:10:19.407Z,536.97
2023-01-26T13:13:09.054Z,540.10
2023-01-26T13:15:35.797Z,533.38
2023-01-26T13:18:04.341Z,536.05
2023-01-26T13:20:48.438Z,542.15
2023-01-26T13:23:39.247Z,542.60
2023-01-26T13:26:41.242Z,548.08
2023-01-26T13:29:27.270Z,543.80
2023-01-26T13:32:17.260Z,538.70
2023-01-26T13:34:47.482Z,547.15
2023-01-26T13:37:21.424Z,553.35
2023-01-26T13:40:00.166Z,551.83
2023-01-26T13:42:41.445Z,554.95
2023-01-26T13:45:16.992Z,555.67
2023-01-26T13:47:49.025Z,561.92
2023-01-26T13:50:39.135Z,564.08
2023-01-26T13:53:29.110Z,551.13
2023-01-26T13:55:59.958Z,548.53
2023-01-26T13:58:27.615Z,542.08
2023-01-26T14:01:06.591Z,545.03
2023-01-26T14:03:33.524Z,553.05
2023-01-26T14:06:26.602Z,553.53
2023-01-26T14:08:55.894Z,554.58
2023-01-26T14:11:26.618Z,554.42
2023-01-26T14:13:56.333Z,551.17
2023-01-26T14:16:31.983Z,549.58
2023-01-26T14:19:16.214Z,545.42
2023-01-26T14:21:50.646Z,550.30
2023-01-26T14:24:21.028Z,543.95
2023-01-26T14:26:48.422Z,552.37
2023-01-26T14:29:27.377Z,546.43
2023-01-26T14:31:57.167Z,544.60
2023-01-26T14:34:30.070Z,546.30
2023-01-26T14:37:17.780Z,547.88
2023-01-26T14:39:47.724Z,554.05
2023-01-26T14:42:19.718Z,543.90
2023-01-26T14:44:47.288Z,552.80
2023-01-26T14:47:25.056Z,551.50
2023-01-26T14:49:57.950Z,549.65
2023-01-26T14:52:28.352Z,551.60
2023-01-26T14:54:58.610Z,550.25
2023-01-26T14:57:27.681Z,546.88
2023-01-26T14:59:57.478Z,543.58
2023-01-26T15:02:37.374Z,549.40
2023-01-26T15:05:18.829Z,549.55
2023-01-26T15:07:50.659Z,549.47
2023-01-26T15:10:28.302Z,551.40
2023-01-26T15:13:00.819Z,548.70
2023-01-26T15:15:34.316Z,548.08
2023-01-26T15:18:05.707Z,549.30
2023-01-26T15:20:33.290Z,547.65
2023-01-26T15:23:00.265Z,549.80
2023-01-26T15:25:29.493Z,551.23
2023-01-26T15:28:00.173Z,555.10
2023-01-26T15:30:32.811Z,550.45
2023-01-26T15:33:00.123Z,558.75
2023-01-26T15:35:34.662Z,551.53
2023-01-26T15:38:08.906Z,550.92
2023-01-26T15:40:35.972Z,552.75
2023-01-26T15:43:19.499Z,551.55
2023-01-26T15:45:59.846Z,544.08
2023-01-26T15:48:26.805Z,556.27
2023-01-26T15:50:53.459Z,555.05
2023-01-26T15:53:21.899Z,550.80
2023-01-26T15:55:52.618Z,555.55
2023-01-26T15:58:19.703Z,554.25
2023-01-26T16:00:47.389Z,556.35
2023-01-26T16:03:18.581Z,560.92
2023-01-26T16:05:49.254Z,561.13
2023-01-26T16:08:17.188Z,562.92
2023-01-26T16:10:44.556Z,564.85
2023-01-26T16:13:12.863Z,567.88
2023-01-26T16:15:43.352Z,570.72
2023-01-26T16:18:10.598Z,565.00
2023-01-26T16:20:39.494Z,568.28
2023-01-26T16:23:28.651Z,565.92
2023-01-26T16:25:55.862Z,575.40
2023-01-26T16:28:22.770Z,576.67
2023-01-26T16:30:51.190Z,568.70
2023-01-26T16:33:24.354Z,568.10
2023-01-26T16:35:50.978Z,568.25
2023-01-26T16:38:17.730Z,565.40
2023-01-26T16:40:46.965Z,564.67
2023-01-26T16:43:25.653Z,571.45
2023-01-26T16:45:53.360Z,563.08
2023-01-26T16:48:20.824Z,564.40
2023-01-26T16:50:51.735Z,560.30
2023-01-26T16:53:26.651Z,564.90
2023-01-26T16:55:54.111Z,560.60
2023-01-26T16:58:21.807Z,560.97
2023-01-26T17:00:49.275Z,567.60
2023-01-26T17:03:15.912Z,573.70
2023-01-26T17:05:43.251Z,568.72
2023-01-26T17:08:10.179Z,561.95
2023-01-26T17:10:38.119Z,569.90
2023-01-26T17:13:05.577Z,568.20
2023-01-26T17:15:32.185Z,568.53
2023-01-26T17:17:59.056Z,568.42
2023-01-26T17:20:25.874Z,562.95
2023-01-26T17:22:52.579Z,570.40
2023-01-26T17:25:19.524Z,566.13
2023-01-26T17:27:47.346Z,568.20
2023-01-26T17:30:14.132Z,578.30
2023-01-26T17:32:42.574Z,566.60
2023-01-26T17:35:09.648Z,565.53
2023-01-26T17:37:37.557Z,559.00
2023-01-26T17:40:04.743Z,566.50
2023-01-26T17:42:33.362Z,569.45
2023-01-26T17:45:00.069Z,557.33
2023-01-26T17:47:26.717Z,563.45
2023-01-26T17:49:53.315Z,560.10
2023-01-26T17:52:19.896Z,569.20
2023-01-26T17:54:46.512Z,570.13
2023-01-26T17:57:15.025Z,574.67
2023-01-26T17:59:41.723Z,571.03
2023-01-26T18:02:11.427Z,564.83
2023-01-26T18:04:38.023Z,567.22
2023-01-26T18:07:04.836Z,565.83
2023-01-26T18:09:31.998Z,560.70
2023-01-26T18:11:58.656Z,565.80
2023-01-26T18:14:25.321Z,565.72
2023-01-26T18:16:51.998Z,564.70
2023-01-26T18:19:18.862Z,567.72
2023-01-26T18:21:50.874Z,565.95
2023-01-26T18:24:17.901Z,565.50
2023-01-26T18:26:44.913Z,563.60
2023-01-26T18:29:11.665Z,571.78
2023-01-26T18:31:42.218Z,567.50
2023-01-26T18:34:10.467Z,569.80
2023-01-26T18:36:37.142Z,568.25
2023-01-26T18:39:08.794Z,568.22
2023-01-26T18:41:35.518Z,575.47
2023-01-26T18:44:03.621Z,560.83
2023-01-26T18:46:31.367Z,569.22
2023-01-26T18:49:02.856Z,570.17
2023-01-26T18:51:34.752Z,572.70
2023-01-26T18:54:01.676Z,571.72
2023-01-26T18:56:28.438Z,566.83
2023-01-26T18:58:55.052Z,563.58
2023-01-26T19:01:22.363Z,569.20
2023-01-26T19:03:54.124Z,569.45
2023-01-26T19:06:22.159Z,572.80
2023-01-26T19:08:58.778Z,564.55
2023-01-26T19:11:31.136Z,561.15
2023-01-26T19:13:58.654Z,568.55
2023-01-26T19:16:25.928Z,568.80
2023-01-26T19:18:54.125Z,568.03
2023-01-26T19:21:24.160Z,561.67
2023-01-26T19:23:52.621Z,570.97
2023-01-26T19:26:21.883Z,563.50
2023-01-26T19:28:50.974Z,568.83
2023-01-26T19:31:19.445Z,564.88
2023-01-26T19:33:54.482Z,566.03
2023-01-26T19:36:22.134Z,570.28
2023-01-26T19:38:49.102Z,561.17
2023-01-26T19:41:16.788Z,557.22
2023-01-26T19:43:44.392Z,562.00
2023-01-26T19:46:13.184Z,562.63
2023-01-26T19:48:40.241Z,565.72
2023-01-26T19:51:15.672Z,559.72
2023-01-26T19:53:44.923Z,565.22
2023-01-26T19:56:13.236Z,558.85
2023-01-26T19:58:41.295Z,555.30
2023-01-26T20:01:10.861Z,554.80
2023-01-26T20:03:38.353Z,569.53
2023-01-26T20:06:06.486Z,564.10
2023-01-26T20:08:33.191Z,556.20
2023-01-26T20:11:07.717Z,563.63
2023-01-26T20:13:35.144Z,563.63
2023-01-26T20:16:03.598Z,561.92
2023-01-26T20:18:30.498Z,560.80
2023-01-26T20:21:00.383Z,570.40
2023-01-26T20:23:27.817Z,568.72
2023-01-26T20:26:09.398Z,566.55
2023-01-26T20:28:37.779Z,559.42
2023-01-26T20:31:15.579Z,561.00
2023-01-26T20:33:44.416Z,569.23
2023-01-26T20:36:13.049Z,573.55
2023-01-26T20:38:39.885Z,568.17
2023-01-26T20:41:08.292Z,565.30
2023-01-26T20:43:39.205Z,573.50
2023-01-26T20:46:11.889Z,565.00
2023-01-26T20:48:38.881Z,559.00
2023-01-26T20:51:17.231Z,558.50
2023-01-26T20:53:45.752Z,555.47
2023-01-26T20:56:14.060Z,561.40
2023-01-26T20:58:42.792Z,554.58
2023-01-26T21:01:12.487Z,568.08
2023-01-26T21:03:40.204Z,565.70
2023-01-26T21:06:08.894Z,569.50
2023-01-26T21:08:39.717Z,573.15
2023-01-26T21:11:09.806Z,570.63
2023-01-26T21:13:37.521Z,562.10
2023-01-26T21:16:05.063Z,562.55
2023-01-26T21:18:31.733Z,569.38
2023-01-26T21:21:04.767Z,568.83
2023-01-26T21:23:33.020Z,575.58
2023-01-26T21:26:09.784Z,574.10
2023-01-26T21:28:36.469Z,569.40
2023-01-26T21:31:04.935Z,562.40
2023-01-26T21:33:33.145Z,572.55
2023-01-26T21:36:01.590Z,573.40
2023-01-26T21:38:31.996Z,570.83
2023-01-26T21:41:35.207Z,566.00
2023-01-26T21:44:09.774Z,578.67
2023-01-26T21:46:36.560Z,576.15
2023-01-26T21:49:04.398Z,565.10
2023-01-26T21:51:49.795Z,563.78
2023-01-26T21:54:17.083Z,566.75
2023-01-26T21:56:43.811Z,567.05
2023-01-26T21:59:14.536Z,564.10
2023-01-26T22:01:47.622Z,571.55
2023-01-26T22:04:17.012Z,564.83
2023-01-26T22:06:43.992Z,561.13
2023-01-26T22:09:12.783Z,564.60
2023-01-26T22:11:39.917Z,566.22
2023-01-26T22:14:07.296Z,566.03
2023-01-26T22:16:34.049Z,561.17
2023-01-26T22:19:00.780Z,567.78
2023-01-26T22:21:27.534Z,565.28
2023-01-26T22:23:55.196Z,567.83
2023-01-26T22:26:23.263Z,573.05
2023-01-26T22:28:54.547Z,568.88
2023-01-26T22:31:23.541Z,577.28
2023-01-26T22:33:51.419Z,571.33
2023-01-26T22:36:18.900Z,573.95
2023-01-26T22:38:46.735Z,565.58
2023-01-26T22:41:24.645Z,565.22
2023-01-26T22:43:54.197Z,565.13
2023-01-26T22:46:23.157Z,566.70
2023-01-26T22:48:50.948Z,564.00
2023-01-26T22:51:26.003Z,570.90
2023-01-26T22:53:54.054Z,566.25
2023-01-26T22:56:21.024Z,568.70
2023-01-26T22:58:58.554Z,565.15
2023-01-26T23:01:31.321Z,572.10
2023-01-26T23:03:59.098Z,569.88
2023-01-26T23:06:26.139Z,564.22
2023-01-26T23:08:53.686Z,571.65
2023-01-26T23:11:28.729Z,570.75
2023-01-26T23:13:56.523Z,564.60
2023-01-26T23:16:24.058Z,565.25
2023-01-26T23:18:52.725Z,568.08
2023-01-26T23:21:19.507Z,565.10
2023-01-26T23:23:46.144Z,566.88
2023-01-26T23:26:12.817Z,564.72
2023-01-26T23:28:41.747Z,572.03
2023-01-26T23:31:09.516Z,563.50
2023-01-26T23:33:37.011Z,567.70
2023-01-26T23:36:05.052Z,565.97
2023-01-26T23:38:32.189Z,569.10
2023-01-26T23:41:03.257Z,564.28
2023-01-26T23:43:29.883Z,560.95
2023-01-26T23:45:56.858Z,561.45
2023-01-26T23:48:24.719Z,565.15
2023-01-26T23:50:59.970Z,564.67
2023-01-26T23:53:27.290Z,562.92
2023-01-26T23:55:54.144Z,563.55
2023-01-26T23:58:20.993Z,559.67
